Time,TemperatureF,DewpointF,PressureIn,WindDirection,WindDirectionDegrees,WindSpeedMPH,WindSpeedGustMPH,Humidity,HourlyPrecipIn,Conditions,Clouds,dailyrainin,SoftwareType,DateUTC
2013-06-18 00:02:00,63.5,60.6,29.04,NNW,338,0.0,0.0,90,0.00,,,0.00,WUHU216HW,2013-06-18 05:02:00,
2013-06-18 00:08:00,63.5,60.6,29.04,NNW,338,0.0,0.0,90,0.00,,,0.00,WUHU216HW,2013-06-18 05:08:00,
2013-06-18 00:13:00,63.1,60.2,29.04,NNW,338,0.0,0.0,90,0.00,,,0.00,WUHU216HW,2013-06-18 05:13:00,
2013-06-18 00:18:00,63.1,60.2,29.04,NNW,338,0.0,0.0,90,0.00,,,0.00,WUHU216HW,2013-06-18 05:18:00,
2013-06-18 00:23:00,63.1,60.2,29.04,NNW,338,0.0,0.0,90,0.00,,,0.00,WUHU216HW,2013-06-18 05:23:00,
2013-06-18 00:28:00,63.1,60.2,29.04,NNW,338,0.0,0.0,90,0.00,,,0.00,WUHU216HW,2013-06-18 05:28:00,
2013-06-18 00:33:00,62.9,59.9,29.04,NNW,338,0.0,0.0,90,0.00,,,0.00,WUHU216HW,2013-06-18 05:33:00,
2013-06-18 00:38:00,62.6,59.7,29.04,NNW,338,0.0,0.0,90,0.00,,,0.00,WUHU216HW,2013-06-18 05:38:00,
2013-06-18 00:43:00,62.4,59.5,29.04,NNW,338,0.0,0.0,90,0.00,,,0.00,WUHU216HW,2013-06-18 05:43:00,
2013-06-18 00:48:00,62.4,59.5,29.04,NNW,338,0.0,0.0,90,0.00,,,0.00,WUHU216HW,2013-06-18 05:48:00,
2013-06-18 00:53:00,62.4,59.5,29.05,NNW,338,0.0,0.0,90,0.00,,,0.00,WUHU216HW,2013-06-18 05:53:00,
2013-06-18 00:58:00,62.4,59.8,29.05,NNW,338,0.0,0.0,91,0.00,,,0.00,WUHU216HW,2013-06-18 05:58:00,
2013-06-18 01:03:00,62.6,59.8,29.05,NNW,338,0.0,0.0,91,0.00,,,0.00,WUHU216HW,2013-06-18 06:03:00,
2013-06-18 01:08:00,62.7,60.1,29.05,NNW,338,0.0,0.0,91,0.00,,,0.00,WUHU216HW,2013-06-18 06:08:00,
2013-06-18 01:13:00,62.4,59.8,29.06,NNW,338,0.0,0.0,91,0.00,,,0.00,WUHU216HW,2013-06-18 06:13:00,
2013-06-18 01:18:00,62.4,59.8,29.06,NNW,338,0.0,0.0,91,0.00,,,0.00,WUHU216HW,2013-06-18 06:18:00,
2013-06-18 01:23:00,62.2,59.6,29.06,NNW,338,0.0,0.0,91,0.00,,,0.00,WUHU216HW,2013-06-18 06:23:00,
2013-06-18 01:28:00,62.2,59.6,29.05,NNW,338,0.0,0.0,91,0.00,,,0.00,WUHU216HW,2013-06-18 06:28:00,
2013-06-18 01:33:00,62.4,59.8,29.07,NNW,338,0.0,0.0,91,0.00,,,0.00,WUHU216HW,2013-06-18 06:33:00,
2013-06-18 01:38:00,62.4,59.8,29.07,NNW,338,0.0,0.0,91,0.00,,,0.00,WUHU216HW,2013-06-18 06:38:00,
2013-06-18 01:44:00,62.6,60.0,29.07,NNW,338,0.0,0.0,91,0.00,,,0.00,WUHU216HW,2013-06-18 06:44:00,
2013-06-18 01:48:00,62.4,59.8,29.06,NNW,338,0.0,0.0,91,0.00,,,0.00,WUHU216HW,2013-06-18 06:48:00,
2013-06-18 01:53:00,62.2,59.6,29.07,NNW,338,0.0,0.0,91,0.00,,,0.00,WUHU216HW,2013-06-18 06:53:00,
2013-06-18 01:58:00,62.0,59.4,29.07,NNW,338,0.0,0.0,91,0.00,,,0.00,WUHU216HW,2013-06-18 06:58:00,
2013-06-18 02:03:00,62.2,59.6,29.07,NNW,338,0.0,0.0,91,0.00,,,0.00,WUHU216HW,2013-06-18 07:03:00,
2013-06-18 02:08:00,62.4,59.8,29.08,NNW,338,0.0,0.0,91,0.00,,,0.00,WUHU216HW,2013-06-18 07:08:00,
2013-06-18 02:13:00,62.4,59.8,29.07,NNW,338,0.0,0.0,91,0.00,,,0.00,WUHU216HW,2013-06-18 07:13:00,
2013-06-18 02:18:00,62.4,59.8,29.07,NNW,338,0.0,0.0,91,0.00,,,0.00,WUHU216HW,2013-06-18 07:18:00,
2013-06-18 02:23:00,62.4,59.8,29.07,NNW,338,0.0,0.0,91,0.00,,,0.00,WUHU216HW,2013-06-18 07:23:00,
2013-06-18 02:28:00,62.4,59.8,29.07,NNW,338,0.0,0.0,91,0.00,,,0.00,WUHU216HW,2013-06-18 07:28:00,
2013-06-18 02:33:00,62.2,59.6,29.06,NNW,338,0.0,0.0,91,0.00,,,0.00,WUHU216HW,2013-06-18 07:33:00,
2013-06-18 02:38:00,61.8,59.2,29.06,NNW,338,0.0,0.0,91,0.00,,,0.00,WUHU216HW,2013-06-18 07:38:00,
2013-06-18 02:43:00,61.8,59.2,29.06,NNW,338,0.0,0.0,91,0.00,,,0.00,WUHU216HW,2013-06-18 07:43:00,
2013-06-18 02:49:00,61.7,59.1,29.06,NNW,338,0.0,0.0,91,0.00,,,0.00,WUHU216HW,2013-06-18 07:49:00,
2013-06-18 02:54:00,61.7,59.1,29.06,NNW,338,0.0,0.0,91,0.00,,,0.00,WUHU216HW,2013-06-18 07:54:00,
2013-06-18 02:58:00,61.5,58.9,29.05,NNW,338,0.0,0.0,91,0.00,,,0.00,WUHU216HW,2013-06-18 07:58:00,
2013-06-18 03:03:00,61.5,58.9,29.05,NNW,338,0.0,0.0,91,0.00,,,0.00,WUHU216HW,2013-06-18 08:03:00,
2013-06-18 03:08:00,61.3,59.0,29.05,NNW,338,0.0,0.0,92,0.00,,,0.00,WUHU216HW,2013-06-18 08:08:00,
2013-06-18 03:13:00,61.3,59.0,29.05,NNW,338,0.0,0.0,92,0.00,,,0.00,WUHU216HW,2013-06-18 08:13:00,
2013-06-18 03:19:00,61.5,59.2,29.05,NNW,338,0.0,0.0,92,0.00,,,0.00,WUHU216HW,2013-06-18 08:19:00,
2013-06-18 03:24:00,61.7,59.3,29.05,NNW,338,0.0,0.0,92,0.00,,,0.00,WUHU216HW,2013-06-18 08:24:00,
2013-06-18 03:29:00,61.8,59.5,29.04,NNW,338,0.0,0.0,92,0.00,,,0.00,WUHU216HW,2013-06-18 08:29:00,
2013-06-18 03:34:00,61.8,59.5,29.05,NNW,338,0.0,0.0,92,0.00,,,0.00,WUHU216HW,2013-06-18 08:34:00,
2013-06-18 03:39:00,61.8,59.2,29.05,NNW,338,0.0,0.0,91,0.00,,,0.00,WUHU216HW,2013-06-18 08:39:00,
2013-06-18 03:44:00,61.5,59.2,29.05,NNW,338,0.0,0.0,92,0.00,,,0.00,WUHU216HW,2013-06-18 08:44:00,
2013-06-18 03:49:00,61.5,59.2,29.04,NNW,338,0.0,0.0,92,0.00,,,0.00,WUHU216HW,2013-06-18 08:49:00,
2013-06-18 03:54:00,61.5,59.2,29.04,NNW,338,0.0,0.0,92,0.00,,,0.00,WUHU216HW,2013-06-18 08:54:00,
2013-06-18 03:59:00,61.3,59.0,29.04,NNW,338,0.0,0.0,92,0.00,,,0.00,WUHU216HW,2013-06-18 08:59:00,
2013-06-18 04:04:00,61.1,58.8,29.05,NNW,338,0.0,0.0,92,0.00,,,0.00,WUHU216HW,2013-06-18 09:04:00,
2013-06-18 04:09:00,60.9,58.6,29.05,NNW,338,0.0,0.0,92,0.00,,,0.00,WUHU216HW,2013-06-18 09:09:00,
2013-06-18 04:14:00,60.9,58.6,29.05,NNW,338,0.0,0.0,92,0.00,,,0.00,WUHU216HW,2013-06-18 09:14:00,
2013-06-18 04:19:00,60.9,58.6,29.05,NNW,338,0.0,0.0,92,0.00,,,0.00,WUHU216HW,2013-06-18 09:19:00,
2013-06-18 04:24:00,60.9,58.6,29.04,NNW,338,0.0,0.0,92,0.00,,,0.00,WUHU216HW,2013-06-18 09:24:00,
2013-06-18 04:29:00,60.9,58.6,29.04,NNW,338,0.0,0.0,92,0.00,,,0.00,WUHU216HW,2013-06-18 09:29:00,
2013-06-18 04:34:00,60.8,58.4,29.04,NNW,338,0.0,0.0,92,0.00,,,0.00,WUHU216HW,2013-06-18 09:34:00,
2013-06-18 04:39:00,60.6,58.3,29.04,NNW,338,0.0,0.0,92,0.00,,,0.00,WUHU216HW,2013-06-18 09:39:00,
2013-06-18 04:44:00,60.6,58.3,29.04,NNW,338,0.0,0.0,92,0.00,,,0.00,WUHU216HW,2013-06-18 09:44:00,
2013-06-18 04:49:00,60.2,57.9,29.04,NNW,338,0.0,0.0,92,0.00,,,0.00,WUHU216HW,2013-06-18 09:49:00,
2013-06-18 04:54:00,60.0,57.7,29.04,NNW,338,0.0,0.0,92,0.00,,,0.00,WUHU216HW,2013-06-18 09:54:00,
2013-06-18 04:59:00,60.4,58.1,29.04,NNW,338,0.0,0.0,92,0.00,,,0.00,WUHU216HW,2013-06-18 09:59:00,
2013-06-18 05:04:00,60.4,58.1,29.04,NNW,338,0.0,0.0,92,0.00,,,0.00,WUHU216HW,2013-06-18 10:04:00,
2013-06-18 05:09:00,60.4,58.1,29.05,NNW,338,0.0,0.0,92,0.00,,,0.00,WUHU216HW,2013-06-18 10:09:00,
2013-06-18 05:14:00,59.9,57.5,29.05,NNW,338,0.0,0.0,92,0.00,,,0.00,WUHU216HW,2013-06-18 10:14:00,
2013-06-18 05:19:00,59.7,57.4,29.05,NNW,338,0.0,0.0,92,0.00,,,0.00,WUHU216HW,2013-06-18 10:19:00,
2013-06-18 05:24:00,59.7,57.4,29.05,NNW,338,0.0,0.0,92,0.00,,,0.00,WUHU216HW,2013-06-18 10:24:00,
2013-06-18 05:29:00,60.0,57.7,29.05,NNW,338,0.0,0.0,92,0.00,,,0.00,WUHU216HW,2013-06-18 10:29:00,
2013-06-18 05:34:00,60.0,57.7,29.05,NNW,338,0.0,0.0,92,0.00,,,0.00,WUHU216HW,2013-06-18 10:34:00,
2013-06-18 05:39:00,59.9,57.5,29.05,NNW,338,0.0,0.0,92,0.00,,,0.00,WUHU216HW,2013-06-18 10:39:00,
2013-06-18 05:44:00,59.7,57.4,29.05,NNW,338,0.0,0.0,92,0.00,,,0.00,WUHU216HW,2013-06-18 10:44:00,
2013-06-18 05:49:00,59.7,57.4,29.05,NNW,338,0.0,0.0,92,0.00,,,0.00,WUHU216HW,2013-06-18 10:49:00,
2013-06-18 05:54:00,59.7,57.4,29.06,NNW,338,0.0,0.0,92,0.00,,,0.00,WUHU216HW,2013-06-18 10:54:00,
2013-06-18 05:59:00,59.5,57.2,29.05,NNW,338,0.0,0.0,92,0.00,,,0.00,WUHU216HW,2013-06-18 10:59:00,
2013-06-18 06:04:00,59.5,57.2,29.05,NNW,338,0.0,0.0,92,0.00,,,0.00,WUHU216HW,2013-06-18 11:04:00,
2013-06-18 06:09:00,59.7,57.4,29.05,NNW,338,0.0,0.0,92,0.00,,,0.00,WUHU216HW,2013-06-18 11:09:00,
2013-06-18 06:14:00,59.7,57.4,29.05,NNW,338,0.0,0.0,92,0.00,,,0.00,WUHU216HW,2013-06-18 11:14:00,
2013-06-18 06:19:00,60.0,57.7,29.05,NNW,338,0.0,0.0,92,0.00,,,0.00,WUHU216HW,2013-06-18 11:19:00,
2013-06-18 06:24:00,60.2,57.9,29.05,NNW,338,0.0,0.0,92,0.00,,,0.00,WUHU216HW,2013-06-18 11:24:00,
2013-06-18 06:29:00,60.4,58.1,29.05,NNW,338,0.0,0.0,92,0.00,,,0.00,WUHU216HW,2013-06-18 11:29:00,
2013-06-18 06:34:00,61.3,59.3,29.05,NNW,338,0.0,0.0,93,0.00,,,0.00,WUHU216HW,2013-06-18 11:34:00,
2013-06-18 06:39:00,62.2,59.9,29.05,NNW,338,0.0,0.0,92,0.00,,,0.00,WUHU216HW,2013-06-18 11:39:00,
2013-06-18 06:44:00,62.2,59.9,29.06,NNW,338,0.0,0.0,92,0.00,,,0.00,WUHU216HW,2013-06-18 11:44:00,
2013-06-18 06:49:00,62.2,59.9,29.06,NNW,338,0.0,0.0,92,0.00,,,0.00,WUHU216HW,2013-06-18 11:49:00,
2013-06-18 06:54:00,62.4,60.1,29.07,NNW,338,0.0,0.0,92,0.00,,,0.00,WUHU216HW,2013-06-18 11:54:00,
2013-06-18 06:59:00,62.7,60.4,29.07,NNW,338,0.0,0.0,92,0.00,,,0.00,WUHU216HW,2013-06-18 11:59:00,
2013-06-18 07:04:00,62.9,60.6,29.06,NNW,338,0.0,0.0,92,0.00,,,0.00,WUHU216HW,2013-06-18 12:04:00,
2013-06-18 07:09:00,63.3,61.0,29.06,NNW,338,0.0,0.0,92,0.00,,,0.00,WUHU216HW,2013-06-18 12:09:00,
2013-06-18 07:14:00,63.3,61.0,29.07,NNW,338,0.0,0.0,92,0.00,,,0.00,WUHU216HW,2013-06-18 12:14:00,
2013-06-18 07:19:00,63.3,61.0,29.07,NNW,338,0.0,0.0,92,0.00,,,0.00,WUHU216HW,2013-06-18 12:19:00,
2013-06-18 07:40:00,74.3,70.5,29.07,NNW,338,0.0,0.0,88,0.00,,,0.00,WUHU216HW,2013-06-18 12:40:00,
2013-06-18 07:45:00,74.4,70.7,29.07,NNW,338,0.0,0.0,88,0.00,,,0.00,WUHU216HW,2013-06-18 12:45:00,
2013-06-18 07:50:00,74.8,70.0,29.07,NNW,338,0.0,0.0,85,0.00,,,0.00,WUHU216HW,2013-06-18 12:50:00,
2013-06-18 07:55:00,75.0,69.9,29.07,NNW,338,0.0,0.0,84,0.00,,,0.00,WUHU216HW,2013-06-18 12:55:00,
2013-06-18 08:00:00,75.0,69.2,29.07,NNW,338,0.0,0.0,82,0.00,,,0.00,WUHU216HW,2013-06-18 13:00:00,
2013-06-18 08:05:00,74.8,68.7,29.07,NNW,338,0.0,0.0,81,0.02,,,0.02,WUHU216HW,2013-06-18 13:05:00,
2013-06-18 08:10:00,74.8,68.7,29.07,NNW,338,0.0,0.0,81,0.02,,,0.02,WUHU216HW,2013-06-18 13:10:00,
2013-06-18 08:15:00,74.8,68.7,29.07,NNW,338,0.0,0.0,81,0.02,,,0.02,WUHU216HW,2013-06-18 13:15:00,
2013-06-18 08:20:00,75.3,68.8,29.07,NNW,338,0.0,0.0,80,0.02,,,0.02,WUHU216HW,2013-06-18 13:20:00,
2013-06-18 08:25:00,75.7,68.8,29.07,NNW,338,0.0,0.0,79,0.02,,,0.02,WUHU216HW,2013-06-18 13:25:00,
2013-06-18 08:30:00,75.7,68.8,29.07,WSW,248,0.0,0.0,79,0.02,,,0.02,WUHU216HW,2013-06-18 13:30:00,
2013-06-18 08:35:00,76.2,68.9,29.07,WSW,248,0.0,0.0,78,0.02,,,0.02,WUHU216HW,2013-06-18 13:35:00,
2013-06-18 08:40:00,76.6,69.2,29.07,WSW,248,0.0,0.0,78,0.02,,,0.02,WUHU216HW,2013-06-18 13:40:00,
2013-06-18 08:45:00,77.3,69.5,29.07,WSW,248,0.0,0.0,77,0.02,,,0.02,WUHU216HW,2013-06-18 13:45:00,
2013-06-18 08:50:00,77.5,69.3,29.08,WSW,248,0.0,0.0,76,0.02,,,0.02,WUHU216HW,2013-06-18 13:50:00,
2013-06-18 08:55:00,77.5,68.9,29.08,WSW,248,0.8,0.8,75,0.02,,,0.02,WUHU216HW,2013-06-18 13:55:00,
2013-06-18 09:00:00,77.5,68.5,29.08,NW,315,6.7,8.5,74,0.00,,,0.02,WUHU216HW,2013-06-18 14:00:00,
2013-06-18 09:05:00,77.1,68.2,29.08,NNW,338,1.1,8.5,74,0.00,,,0.02,WUHU216HW,2013-06-18 14:05:00,
2013-06-18 09:10:00,77.3,68.3,29.08,NNW,338,0.0,6.9,74,0.00,,,0.02,WUHU216HW,2013-06-18 14:10:00,
2013-06-18 09:15:00,77.7,68.7,29.08,NNW,338,0.0,6.9,74,0.00,,,0.02,WUHU216HW,2013-06-18 14:15:00,
2013-06-18 09:20:00,78.4,69.4,29.08,NNW,338,1.5,1.7,74,0.00,,,0.02,WUHU216HW,2013-06-18 14:20:00,
2013-06-18 09:25:00,78.8,69.7,29.08,NNW,338,2.2,2.2,74,0.00,,,0.02,WUHU216HW,2013-06-18 14:25:00,
2013-06-18 09:30:00,79.3,69.9,29.08,NNW,338,0.0,2.4,73,0.00,,,0.02,WUHU216HW,2013-06-18 14:30:00,
2013-06-18 09:35:00,79.8,70.0,29.08,NNW,338,4.0,7.3,72,0.00,,,0.02,WUHU216HW,2013-06-18 14:35:00,
2013-06-18 09:40:00,80.0,69.8,29.08,NW,315,0.4,7.3,71,0.00,,,0.02,WUHU216HW,2013-06-18 14:40:00,
2013-06-18 09:45:00,80.4,69.8,29.08,NW,315,0.0,6.4,70,0.00,,,0.02,WUHU216HW,2013-06-18 14:45:00,
2013-06-18 09:50:00,80.9,70.3,29.08,NW,315,4.0,6.4,70,0.00,,,0.02,WUHU216HW,2013-06-18 14:50:00,
2013-06-18 09:55:00,81.3,70.1,29.08,NW,315,4.2,4.2,69,0.00,,,0.02,WUHU216HW,2013-06-18 14:55:00,
2013-06-18 10:00:00,81.3,69.7,29.08,NNW,338,2.0,7.3,68,0.00,,,0.02,WUHU216HW,2013-06-18 15:00:00,
2013-06-18 10:05:00,81.6,70.0,29.07,NNW,338,5.1,7.3,68,0.00,,,0.02,WUHU216HW,2013-06-18 15:05:00,
2013-06-18 10:10:00,81.8,70.2,29.08,NNW,338,0.0,5.1,68,0.00,,,0.02,WUHU216HW,2013-06-18 15:10:00,
2013-06-18 10:15:00,82.2,70.5,29.08,NW,315,1.1,5.1,68,0.00,,,0.02,WUHU216HW,2013-06-18 15:15:00,
2013-06-18 10:20:00,82.5,69.9,29.08,NNW,338,3.1,6.2,66,0.00,,,0.02,WUHU216HW,2013-06-18 15:20:00,
2013-06-18 10:25:00,83.1,70.0,29.08,NNW,338,0.0,6.2,65,0.00,,,0.02,WUHU216HW,2013-06-18 15:25:00,
2013-06-18 10:30:00,83.4,70.4,29.07,NNW,338,0.0,3.1,65,0.00,,,0.02,WUHU216HW,2013-06-18 15:30:00,
2013-06-18 10:35:00,84.3,71.3,29.07,NNW,338,0.8,6.4,65,0.00,,,0.02,WUHU216HW,2013-06-18 15:35:00,
2013-06-18 10:40:00,84.3,70.8,29.08,NW,315,0.0,6.4,64,0.00,,,0.02,WUHU216HW,2013-06-18 15:40:00,
2013-06-18 10:45:00,84.2,70.2,29.08,NW,315,0.0,3.1,63,0.00,,,0.02,WUHU216HW,2013-06-18 15:45:00,
2013-06-18 10:50:00,84.3,69.9,29.08,NNW,338,3.5,8.5,62,0.00,,,0.02,WUHU216HW,2013-06-18 15:50:00,
2013-06-18 10:55:00,84.2,69.8,29.08,NNW,338,0.0,8.5,62,0.00,,,0.02,WUHU216HW,2013-06-18 15:55:00,
2013-06-18 11:00:00,84.3,70.4,29.07,NNW,338,0.0,3.5,63,0.00,,,0.02,WUHU216HW,2013-06-18 16:00:00,
2013-06-18 11:05:00,84.3,69.5,29.08,WNW,293,4.2,13.4,61,0.00,,,0.02,WUHU216HW,2013-06-18 16:05:00,
2013-06-18 11:10:00,84.5,69.6,29.08,NW,315,6.7,13.4,61,0.00,,,0.02,WUHU216HW,2013-06-18 16:10:00,
2013-06-18 11:15:00,84.7,69.8,29.08,NW,315,2.2,6.7,61,0.00,,,0.02,WUHU216HW,2013-06-18 16:15:00,
2013-06-18 11:21:00,85.2,70.7,29.08,NNW,338,7.1,7.1,62,0.00,,,0.02,WUHU216HW,2013-06-18 16:21:00,
2013-06-18 11:26:00,85.6,70.6,29.08,NNW,338,0.0,7.1,61,0.00,,,0.02,WUHU216HW,2013-06-18 16:26:00,
2013-06-18 11:31:00,85.6,69.6,29.08,NW,315,5.8,7.1,59,0.00,,,0.02,WUHU216HW,2013-06-18 16:31:00,
2013-06-18 11:36:00,86.1,70.1,29.08,NNW,338,0.0,5.8,59,0.00,,,0.02,WUHU216HW,2013-06-18 16:36:00,
2013-06-18 11:41:00,86.3,69.8,29.08,NW,315,4.6,4.6,58,0.00,,,0.02,WUHU216HW,2013-06-18 16:41:00,
2013-06-18 11:46:00,86.7,69.6,29.08,NW,315,7.1,7.1,57,0.00,,,0.02,WUHU216HW,2013-06-18 16:46:00,
2013-06-18 11:51:00,87.8,70.1,29.08,NNW,338,9.8,9.8,56,0.00,,,0.02,WUHU216HW,2013-06-18 16:51:00,
2013-06-18 11:56:00,88.1,69.9,29.08,NW,315,4.0,12.9,55,0.00,,,0.02,WUHU216HW,2013-06-18 16:56:00,
2013-06-18 12:01:00,88.5,70.2,29.08,NNE,23,10.9,12.9,55,0.00,,,0.02,WUHU216HW,2013-06-18 17:01:00,
2013-06-18 12:06:00,88.8,70.5,29.08,NW,315,4.0,10.9,55,0.00,,,0.02,WUHU216HW,2013-06-18 17:06:00,
2013-06-18 12:11:00,89.2,70.3,29.08,NW,315,0.0,7.1,54,0.00,,,0.02,WUHU216HW,2013-06-18 17:11:00,
2013-06-18 12:16:00,88.8,70.5,29.08,NW,315,0.0,4.0,55,0.00,,,0.02,WUHU216HW,2013-06-18 17:16:00,
2013-06-18 12:21:00,89.6,70.7,29.08,NNW,338,0.0,8.0,54,0.00,,,0.02,WUHU216HW,2013-06-18 17:21:00,
2013-06-18 12:26:00,89.9,72.1,29.08,NNW,338,6.2,8.0,56,0.00,,,0.02,WUHU216HW,2013-06-18 17:26:00,
2013-06-18 12:31:00,90.1,72.2,29.08,NNW,338,0.0,7.1,56,0.00,,,0.02,WUHU216HW,2013-06-18 17:31:00,
2013-06-18 12:36:00,89.4,71.0,29.08,NNW,338,0.0,0.0,55,0.00,,,0.02,WUHU216HW,2013-06-18 17:36:00,
2013-06-18 12:41:00,87.6,68.9,29.08,NNW,338,0.0,7.6,54,0.00,,,0.02,WUHU216HW,2013-06-18 17:41:00,
2013-06-18 12:46:00,87.8,69.6,29.08,NNW,338,0.0,7.6,55,0.00,,,0.02,WUHU216HW,2013-06-18 17:46:00,
2013-06-18 12:51:00,89.2,70.9,29.08,NNW,338,6.7,6.7,55,0.00,,,0.02,WUHU216HW,2013-06-18 17:51:00,
2013-06-18 12:56:00,89.4,70.5,29.08,NNW,338,0.0,6.7,54,0.00,,,0.02,WUHU216HW,2013-06-18 17:56:00,
2013-06-18 13:01:00,90.1,70.4,29.08,NNW,338,0.0,6.7,54,0.00,,,0.02,WUHU216HW,2013-06-18 18:01:00,
2013-06-18 13:06:00,89.4,70.5,29.08,NNW,338,9.8,9.8,54,0.00,,,0.02,WUHU216HW,2013-06-18 18:06:00,
2013-06-18 13:11:00,88.8,68.9,29.08,NNW,338,0.0,9.8,52,0.00,,,0.02,WUHU216HW,2013-06-18 18:11:00,
2013-06-18 13:16:00,89.4,68.9,29.08,NE,45,7.1,9.8,51,0.00,,,0.02,WUHU216HW,2013-06-18 18:16:00,
2013-06-18 13:21:00,89.7,69.2,29.08,NNW,338,4.6,7.1,51,0.00,,,0.02,WUHU216HW,2013-06-18 18:21:00,
2013-06-18 13:26:00,89.4,68.9,29.08,North,0,0.0,8.0,51,0.00,,,0.02,WUHU216HW,2013-06-18 18:26:00,
2013-06-18 13:31:00,88.3,67.4,29.08,North,0,0.2,8.0,50,0.00,,,0.02,WUHU216HW,2013-06-18 18:31:00,
2013-06-18 13:36:00,86.9,67.1,29.08,North,0,0.0,5.3,52,0.00,,,0.02,WUHU216HW,2013-06-18 18:36:00,
2013-06-18 13:41:00,87.4,68.1,29.07,North,0,0.0,4.2,53,0.00,,,0.02,WUHU216HW,2013-06-18 18:41:00,
2013-06-18 13:46:00,88.3,68.4,29.07,NE,45,6.9,6.9,52,0.00,,,0.02,WUHU216HW,2013-06-18 18:46:00,
2013-06-18 13:51:00,88.8,68.9,29.07,ENE,68,5.8,6.9,52,0.00,,,0.02,WUHU216HW,2013-06-18 18:51:00,
2013-06-18 13:56:00,89.2,68.7,29.07,ENE,68,0.4,6.0,51,0.00,,,0.02,WUHU216HW,2013-06-18 18:56:00,
2013-06-18 14:01:00,89.4,69.4,29.07,North,0,0.0,5.8,52,0.00,,,0.02,WUHU216HW,2013-06-18 19:01:00,
2013-06-18 14:06:00,89.4,68.3,29.07,NE,45,0.0,5.1,50,0.00,,,0.02,WUHU216HW,2013-06-18 19:06:00,
2013-06-18 14:11:00,89.0,67.4,29.07,NNE,23,0.0,8.9,49,0.00,,,0.02,WUHU216HW,2013-06-18 19:11:00,
2013-06-18 14:16:00,88.8,67.2,29.07,ENE,68,0.0,8.9,49,0.00,,,0.02,WUHU216HW,2013-06-18 19:16:00,
2013-06-18 14:21:00,89.2,68.2,29.07,ENE,68,0.0,0.0,50,0.00,,,0.02,WUHU216HW,2013-06-18 19:21:00,
2013-06-18 14:26:00,89.4,68.3,29.06,NE,45,2.4,6.0,50,0.00,,,0.02,WUHU216HW,2013-06-18 19:26:00,
2013-06-18 14:31:00,88.8,67.8,29.06,NE,45,3.1,6.0,50,0.00,,,0.02,WUHU216HW,2013-06-18 19:31:00,
2013-06-18 14:36:00,88.8,67.2,29.06,ENE,68,0.0,3.8,49,0.00,,,0.02,WUHU216HW,2013-06-18 19:36:00,
2013-06-18 14:41:00,89.4,66.4,29.06,ENE,68,6.0,6.0,47,0.00,,,0.02,WUHU216HW,2013-06-18 19:41:00,
2013-06-18 14:46:00,89.7,68.0,29.06,ENE,68,0.0,6.0,49,0.00,,,0.02,WUHU216HW,2013-06-18 19:46:00,
2013-06-18 14:51:00,89.7,67.4,29.06,ENE,68,3.1,6.0,48,0.00,,,0.02,WUHU216HW,2013-06-18 19:51:00,
2013-06-18 14:56:00,89.4,67.7,29.06,NE,45,0.0,3.1,49,0.00,,,0.02,WUHU216HW,2013-06-18 19:56:00,
2013-06-18 15:01:00,89.2,67.5,29.06,NE,45,5.8,5.8,49,0.00,,,0.02,WUHU216HW,2013-06-18 20:01:00,
2013-06-18 15:06:00,89.2,67.5,29.06,NE,45,2.4,5.8,49,0.00,,,0.02,WUHU216HW,2013-06-18 20:06:00,
2013-06-18 15:11:00,89.2,66.9,29.06,ENE,68,1.3,5.8,48,0.00,,,0.02,WUHU216HW,2013-06-18 20:11:00,
2013-06-18 15:16:00,89.2,67.5,29.05,WSW,248,3.8,3.8,49,0.00,,,0.02,WUHU216HW,2013-06-18 20:16:00,
2013-06-18 15:21:00,89.0,66.7,29.05,WSW,248,1.7,3.8,48,0.00,,,0.02,WUHU216HW,2013-06-18 20:21:00,
2013-06-18 15:26:00,88.8,67.2,29.04,WSW,248,0.0,6.9,49,0.00,,,0.02,WUHU216HW,2013-06-18 20:26:00,
2013-06-18 15:31:00,88.8,67.2,29.04,WSW,248,5.5,6.9,49,0.00,,,0.02,WUHU216HW,2013-06-18 20:31:00,
2013-06-18 15:36:00,88.8,67.2,29.04,WSW,248,4.6,5.5,49,0.00,,,0.02,WUHU216HW,2013-06-18 20:36:00,
2013-06-18 15:41:00,88.7,67.0,29.03,WSW,248,5.5,5.5,49,0.00,,,0.02,WUHU216HW,2013-06-18 20:41:00,
2013-06-18 15:46:00,88.8,67.2,29.03,WSW,248,0.0,5.5,49,0.00,,,0.02,WUHU216HW,2013-06-18 20:46:00,
2013-06-18 15:51:00,88.8,66.5,29.04,WSW,248,0.0,5.5,48,0.00,,,0.02,WUHU216HW,2013-06-18 20:51:00,
2013-06-18 15:56:00,89.4,67.0,29.03,WSW,248,0.0,0.0,48,0.00,,,0.02,WUHU216HW,2013-06-18 20:56:00,
2013-06-18 16:01:00,89.0,66.7,29.03,NNE,23,0.0,0.0,48,0.00,,,0.02,WUHU216HW,2013-06-18 21:01:00,
2013-06-18 16:06:00,88.1,66.5,29.03,NNE,23,0.0,0.0,49,0.00,,,0.02,WUHU216HW,2013-06-18 21:06:00,
2013-06-18 16:11:00,86.9,66.6,29.03,NNE,23,0.0,0.0,51,0.00,,,0.02,WUHU216HW,2013-06-18 21:11:00,
2013-06-18 16:16:00,86.1,65.9,29.04,NNE,23,0.0,0.0,51,0.00,,,0.02,WUHU216HW,2013-06-18 21:16:00,
2013-06-18 16:21:00,85.2,65.6,29.04,NNE,23,0.0,0.0,52,0.00,,,0.02,WUHU216HW,2013-06-18 21:21:00,
2013-06-18 16:26:00,84.2,65.2,29.03,NNE,23,0.0,0.0,53,0.00,,,0.02,WUHU216HW,2013-06-18 21:26:00,
2013-06-18 16:31:00,83.3,64.8,29.03,NNE,23,0.0,0.0,54,0.00,,,0.02,WUHU216HW,2013-06-18 21:31:00,
2013-06-18 16:36:00,82.5,65.1,29.02,NNE,23,0.0,3.5,56,0.00,,,0.02,WUHU216HW,2013-06-18 21:36:00,
2013-06-18 16:41:00,81.5,64.7,29.03,NNE,23,0.0,3.5,57,0.00,,,0.02,WUHU216HW,2013-06-18 21:41:00,
2013-06-18 16:46:00,81.1,64.9,29.03,NNE,23,0.0,0.0,58,0.00,,,0.02,WUHU216HW,2013-06-18 21:46:00,
2013-06-18 16:51:00,80.4,64.2,29.04,NNE,23,0.0,0.0,58,0.00,,,0.02,WUHU216HW,2013-06-18 21:51:00,
2013-06-18 16:56:00,79.8,64.3,29.05,North,0,0.0,0.0,59,0.00,,,0.02,WUHU216HW,2013-06-18 21:56:00,
2013-06-18 17:02:00,79.5,64.5,29.05,North,0,0.0,0.0,60,0.00,,,0.02,WUHU216HW,2013-06-18 22:02:00,
2013-06-18 17:07:00,79.1,64.1,29.06,North,0,0.0,0.0,60,0.00,,,0.02,WUHU216HW,2013-06-18 22:07:00,
2013-06-18 17:12:00,78.6,64.1,29.06,North,0,0.0,0.0,61,0.00,,,0.02,WUHU216HW,2013-06-18 22:12:00,
2013-06-18 17:17:00,78.0,64.0,29.05,North,0,0.0,0.0,62,0.00,,,0.02,WUHU216HW,2013-06-18 22:17:00,
2013-06-18 17:22:00,77.7,64.0,29.05,North,0,0.0,0.0,63,0.00,,,0.02,WUHU216HW,2013-06-18 22:22:00,
2013-06-18 17:27:00,77.3,63.7,29.05,North,0,0.0,0.0,63,0.00,,,0.02,WUHU216HW,2013-06-18 22:27:00,
2013-06-18 17:32:00,77.0,63.8,29.05,North,0,0.0,0.0,64,0.00,,,0.02,WUHU216HW,2013-06-18 22:32:00,
2013-06-18 17:37:00,76.6,63.5,29.04,North,0,0.0,0.0,64,0.00,,,0.02,WUHU216HW,2013-06-18 22:37:00,
2013-06-18 17:42:00,76.2,63.6,29.05,North,0,0.0,0.0,65,0.00,,,0.02,WUHU216HW,2013-06-18 22:42:00,
2013-06-18 17:47:00,76.2,63.6,29.07,North,0,0.0,0.0,65,0.00,,,0.02,WUHU216HW,2013-06-18 22:47:00,
2013-06-18 17:52:00,75.5,64.2,29.09,WSW,248,0.0,0.0,69,0.00,,,0.02,WUHU216HW,2013-06-18 22:52:00,
2013-06-18 17:57:00,73.4,63.5,29.08,SSE,158,0.0,0.0,71,0.00,,,0.02,WUHU216HW,2013-06-18 22:57:00,
2013-06-18 18:02:00,72.1,63.0,29.08,SE,135,0.6,0.6,73,0.00,,,0.02,WUHU216HW,2013-06-18 23:02:00,
2013-06-18 18:07:00,72.1,63.0,29.08,SE,135,0.6,0.6,73,0.00,,,0.02,WUHU216HW,2013-06-18 23:07:00,
2013-06-18 18:12:00,72.1,63.0,29.08,SE,135,0.6,0.6,73,0.00,,,0.02,WUHU216HW,2013-06-18 23:12:00,
2013-06-18 19:28:00,68.1,64.1,29.07,SSE,158,0.0,0.0,87,0.00,,,0.02,WUHU216HW,2013-06-19 00:28:00,
2013-06-18 19:33:00,68.3,64.3,29.07,SSE,158,0.0,0.0,87,0.00,,,0.02,WUHU216HW,2013-06-19 00:33:00,
2013-06-18 19:38:00,68.5,64.4,29.07,SSE,158,0.0,0.0,87,0.00,,,0.02,WUHU216HW,2013-06-19 00:38:00,
2013-06-18 19:43:00,68.5,64.4,29.06,SSE,158,0.0,0.0,87,0.00,,,0.02,WUHU216HW,2013-06-19 00:43:00,
2013-06-18 19:48:00,69.0,65.0,29.06,SSE,158,0.0,0.0,87,0.00,,,0.02,WUHU216HW,2013-06-19 00:48:00,
2013-06-18 19:54:00,69.2,64.8,29.06,SSE,158,0.0,0.0,86,0.06,,,0.09,WUHU216HW,2013-06-19 00:54:00,
2013-06-18 19:59:00,69.2,64.8,29.06,SSE,158,0.0,0.0,86,0.06,,,0.09,WUHU216HW,2013-06-19 00:59:00,
2013-06-18 20:04:00,69.4,65.0,29.06,SSE,158,0.0,0.0,86,0.06,,,0.09,WUHU216HW,2013-06-19 01:04:00,
2013-06-18 20:09:00,69.6,65.1,29.06,SSE,158,0.0,0.0,86,0.06,,,0.09,WUHU216HW,2013-06-19 01:09:00,
2013-06-18 20:14:00,69.4,64.6,29.05,SSE,158,0.0,0.0,85,0.06,,,0.09,WUHU216HW,2013-06-19 01:14:00,
2013-06-18 20:19:00,69.4,64.6,29.05,SSE,158,0.0,0.0,85,0.06,,,0.09,WUHU216HW,2013-06-19 01:19:00,
2013-06-18 20:24:00,69.2,64.3,29.05,SSE,158,0.0,0.0,85,0.06,,,0.09,WUHU216HW,2013-06-19 01:24:00,
2013-06-18 20:29:00,68.9,64.1,29.05,SSE,158,0.0,0.0,85,0.06,,,0.09,WUHU216HW,2013-06-19 01:29:00,
2013-06-18 20:34:00,68.7,64.0,29.05,SSE,158,0.0,0.0,85,0.06,,,0.09,WUHU216HW,2013-06-19 01:34:00,
2013-06-18 20:39:00,68.3,63.4,29.05,SSE,158,0.0,0.0,85,0.06,,,0.09,WUHU216HW,2013-06-19 01:39:00,
2013-06-18 20:44:00,67.8,63.1,29.05,SSE,158,0.0,0.0,85,0.06,,,0.09,WUHU216HW,2013-06-19 01:44:00,
2013-06-18 20:49:00,67.6,62.9,29.05,SSE,158,0.0,0.0,85,0.00,,,0.09,WUHU216HW,2013-06-19 01:49:00,
2013-06-18 20:54:00,67.2,62.6,29.05,SSE,158,0.0,0.0,85,0.00,,,0.09,WUHU216HW,2013-06-19 01:54:00,
2013-06-18 20:59:00,66.7,62.0,29.05,SSE,158,0.0,0.0,85,0.00,,,0.09,WUHU216HW,2013-06-19 01:59:00,
2013-06-18 21:04:00,66.7,62.3,29.05,SSE,158,0.0,0.0,86,0.00,,,0.09,WUHU216HW,2013-06-19 02:04:00,
2013-06-18 21:09:00,66.5,62.2,29.05,SSE,158,0.0,0.0,86,0.00,,,0.09,WUHU216HW,2013-06-19 02:09:00,
2013-06-18 21:14:00,66.2,62.1,29.05,SSE,158,0.0,0.0,87,0.00,,,0.09,WUHU216HW,2013-06-19 02:14:00,
2013-06-18 21:19:00,66.0,61.9,29.05,SSE,158,0.0,0.0,87,0.00,,,0.09,WUHU216HW,2013-06-19 02:19:00,
2013-06-18 21:24:00,65.8,61.9,29.05,SSE,158,0.0,0.0,87,0.00,,,0.09,WUHU216HW,2013-06-19 02:24:00,
2013-06-18 21:29:00,65.6,61.6,29.05,SSE,158,0.0,0.0,87,0.00,,,0.09,WUHU216HW,2013-06-19 02:29:00,
2013-06-18 21:34:00,65.4,61.4,29.05,SSE,158,0.0,0.0,87,0.00,,,0.09,WUHU216HW,2013-06-19 02:34:00,
2013-06-18 21:39:00,65.1,61.1,29.05,SSE,158,0.0,0.0,87,0.00,,,0.09,WUHU216HW,2013-06-19 02:39:00,
2013-06-18 21:44:00,65.1,61.4,29.05,SSE,158,0.0,0.0,88,0.00,,,0.09,WUHU216HW,2013-06-19 02:44:00,
2013-06-18 21:49:00,64.9,61.3,29.05,SSE,158,0.0,0.0,88,0.00,,,0.09,WUHU216HW,2013-06-19 02:49:00,
2013-06-18 21:54:00,64.9,61.3,29.05,SSE,158,0.0,0.0,88,0.00,,,0.09,WUHU216HW,2013-06-19 02:54:00,
2013-06-18 21:59:00,64.7,61.5,29.05,SSE,158,0.0,0.0,89,0.00,,,0.09,WUHU216HW,2013-06-19 02:59:00,
2013-06-18 22:04:00,64.7,61.5,29.05,SSE,158,0.0,0.0,89,0.00,,,0.09,WUHU216HW,2013-06-19 03:04:00,
2013-06-18 22:09:00,64.7,61.5,29.05,SSE,158,0.0,0.0,89,0.00,,,0.09,WUHU216HW,2013-06-19 03:09:00,
2013-06-18 22:14:00,64.7,61.5,29.05,SSE,158,0.0,0.0,89,0.00,,,0.09,WUHU216HW,2013-06-19 03:14:00,
2013-06-18 22:33:00,63.6,60.4,29.05,SSE,158,0.0,0.0,89,0.00,,,0.09,WUHU216HW,2013-06-19 03:33:00,
2013-06-18 22:38:00,63.6,60.4,29.05,SSE,158,0.0,0.0,89,0.00,,,0.09,WUHU216HW,2013-06-19 03:38:00,
2013-06-18 22:43:00,63.6,60.4,29.05,SSE,158,0.0,0.0,89,0.00,,,0.09,WUHU216HW,2013-06-19 03:43:00,
2013-06-18 22:48:00,63.5,60.2,29.05,SSE,158,0.0,0.0,89,0.00,,,0.09,WUHU216HW,2013-06-19 03:48:00,
2013-06-18 22:53:00,63.5,60.2,29.06,SSE,158,0.0,0.0,89,0.00,,,0.09,WUHU216HW,2013-06-19 03:53:00,
2013-06-18 22:58:00,63.3,60.4,29.05,SSE,158,0.0,0.0,90,0.00,,,0.09,WUHU216HW,2013-06-19 03:58:00,
2013-06-18 23:01:00,63.3,60.4,29.05,SSE,158,0.0,0.0,90,0.00,,,0.09,WUHU216HW,2013-06-19 04:01:00,
2013-06-18 23:02:00,63.3,60.4,29.05,SSE,158,0.0,0.0,90,0.00,,,0.09,WUHU216HW,2013-06-19 04:02:00,
2013-06-18 23:07:00,63.1,60.2,29.05,SSE,158,0.0,0.0,90,0.00,,,0.09,WUHU216HW,2013-06-19 04:07:00,
2013-06-18 23:12:00,63.1,60.2,29.05,SSE,158,0.0,0.0,90,0.00,,,0.09,WUHU216HW,2013-06-19 04:12:00,
2013-06-18 23:17:00,62.9,60.0,29.05,SSE,158,0.0,0.0,90,0.00,,,0.09,WUHU216HW,2013-06-19 04:17:00,
2013-06-18 23:22:00,62.7,59.9,29.05,SSE,158,0.0,0.0,90,0.00,,,0.09,WUHU216HW,2013-06-19 04:22:00,
2013-06-18 23:27:00,62.6,59.7,29.05,SSE,158,0.0,0.0,90,0.00,,,0.09,WUHU216HW,2013-06-19 04:27:00,
2013-06-18 23:32:00,62.4,59.5,29.04,SSE,158,0.0,0.0,90,0.00,,,0.09,WUHU216HW,2013-06-19 04:32:00,
2013-06-18 23:37:00,62.2,59.3,29.04,SSE,158,0.0,0.0,90,0.00,,,0.09,WUHU216HW,2013-06-19 04:37:00,
2013-06-18 23:42:00,61.8,59.0,29.05,SSE,158,0.0,0.0,90,0.00,,,0.09,WUHU216HW,2013-06-19 04:42:00,
2013-06-18 23:47:00,62.2,59.3,29.05,SSE,158,0.0,0.0,90,0.00,,,0.09,WUHU216HW,2013-06-19 04:47:00,
2013-06-18 23:52:00,62.2,59.3,29.05,SSE,158,0.0,0.0,90,0.00,,,0.09,WUHU216HW,2013-06-19 04:52:00,
2013-06-18 23:57:00,62.4,59.5,29.05,SSE,158,0.0,0.0,90,0.00,,,0.09,WUHU216HW,2013-06-19 04:57:00,